sensor_id;sensor_type;location;lat;lon;timestamp;pressure;altitude;pressure_sealevel;temperature;humidity
71457;BME280;59263;48.160;11.752;2023-02-12T00:02:03;97735.59;;;3.04;100.00
71457;BME280;59263;48.160;11.752;2023-02-12T00:04:28;97732.19;;;3.04;100.00
71457;BME280;59263;48.160;11.752;2023-02-12T00:06:53;97729.09;;;2.94;100.00
71457;BME280;59263;48.160;11.752;2023-02-12T00:09:19;97739.03;;;3.03;100.00
71457;BME280;59263;48.160;11.752;2023-02-12T00:11:44;97701.22;;;2.86;100.00
71457;BME280;59263;48.160;11.752;2023-02-12T00:14:09;97715.41;;;2.97;100.00
71457;BME280;59263;48.160;11.752;2023-02-12T00:16:35;97717.00;;;2.99;100.00
71457;BME280;59263;48.160;11.752;2023-02-12T00:19:00;97711.97;;;2.96;100.00
71457;BME280;59263;48.160;11.752;2023-02-12T00:21:26;97715.75;;;2.86;100.00
71457;BME280;59263;48.160;11.752;2023-02-12T00:23:51;97724.19;;;2.88;100.00
71457;BME280;59263;48.160;11.752;2023-02-12T00:26:18;97729.25;;;2.89;100.00
71457;BME280;59263;48.160;11.752;2023-02-12T00:28:44;97724.28;;;2.85;100.00
71457;BME280;59263;48.160;11.752;2023-02-12T00:31:14;97730.97;;;2.89;100.00
71457;BME280;59263;48.160;11.752;2023-02-12T00:33:41;97743.63;;;2.94;100.00
71457;BME280;59263;48.160;11.752;2023-02-12T00:36:08;97742.88;;;2.90;100.00
71457;BME280;59263;48.160;11.752;2023-02-12T00:38:34;97729.38;;;2.85;100.00
71457;BME280;59263;48.160;11.752;2023-02-12T00:40:59;97736.19;;;2.86;100.00
71457;BME280;59263;48.160;11.752;2023-02-12T00:43:25;97730.44;;;2.79;100.00
71457;BME280;59263;48.160;11.752;2023-02-12T00:45:50;97742.16;;;2.85;100.00
71457;BME280;59263;48.160;11.752;2023-02-12T00:48:15;97738.03;;;2.81;100.00
71457;BME280;59263;48.160;11.752;2023-02-12T00:50:44;97750.03;;;2.79;100.00
71457;BME280;59263;48.160;11.752;2023-02-12T00:53:09;97750.13;;;2.76;100.00
71457;BME280;59263;48.160;11.752;2023-02-12T00:55:35;97751.88;;;2.74;100.00
71457;BME280;59263;48.160;11.752;2023-02-12T00:58:00;97755.16;;;2.79;100.00
71457;BME280;59263;48.160;11.752;2023-02-12T01:00:25;97751.97;;;2.71;100.00
71457;BME280;59263;48.160;11.752;2023-02-12T01:02:51;97755.16;;;2.79;100.00
71457;BME280;59263;48.160;11.752;2023-02-12T01:05:17;97755.16;;;2.79;100.00
71457;BME280;59263;48.160;11.752;2023-02-12T01:07:48;97749.25;;;2.77;100.00
71457;BME280;59263;48.160;11.752;2023-02-12T01:10:13;97762.84;;;2.77;100.00
71457;BME280;59263;48.160;11.752;2023-02-12T01:12:39;97757.81;;;2.76;100.00
71457;BME280;59263;48.160;11.752;2023-02-12T01:15:04;97745.13;;;2.73;100.00
71457;BME280;59263;48.160;11.752;2023-02-12T01:17:30;97736.84;;;2.64;100.00
71457;BME280;59263;48.160;11.752;2023-02-12T01:19:56;97748.56;;;2.72;100.00
71457;BME280;59263;48.160;11.752;2023-02-12T01:22:22;97757.94;;;2.71;100.00
71457;BME280;59263;48.160;11.752;2023-02-12T01:24:47;97758.97;;;2.65;100.00
71457;BME280;59263;48.160;11.752;2023-02-12T01:27:14;97768.28;;;2.66;100.00
71457;BME280;59263;48.160;11.752;2023-02-12T01:29:39;97764.97;;;2.64;100.00
71457;BME280;59263;48.160;11.752;2023-02-12T01:32:09;97759.00;;;2.64;100.00
71457;BME280;59263;48.160;11.752;2023-02-12T01:34:34;97768.41;;;2.63;100.00
71457;BME280;59263;48.160;11.752;2023-02-12T01:36:59;97760.09;;;2.55;100.00
71457;BME280;59263;48.160;11.752;2023-02-12T01:39:25;97744.09;;;2.50;100.00
71457;BME280;59263;48.160;11.752;2023-02-12T01:41:50;97755.63;;;2.63;100.00
71457;BME280;59263;48.160;11.752;2023-02-12T01:44:19;97754.03;;;2.59;100.00
71457;BME280;59263;48.160;11.752;2023-02-12T01:46:49;97758.38;;;2.56;100.00
71457;BME280;59263;48.160;11.752;2023-02-12T01:51:53;97754.31;;;2.50;100.00
71457;BME280;59263;48.160;11.752;2023-02-12T01:54:21;97759.41;;;2.50;100.00
71457;BME280;59263;48.160;11.752;2023-02-12T01:56:49;97751.97;;;2.42;100.00
71457;BME280;59263;48.160;11.752;2023-02-12T01:59:15;97748.50;;;2.45;100.00
71457;BME280;59263;48.160;11.752;2023-02-12T02:01:42;97761.16;;;2.48;100.00
71457;BME280;59263;48.160;11.752;2023-02-12T02:04:11;97756.19;;;2.45;100.00
71457;BME280;59263;48.160;11.752;2023-02-12T02:06:45;97756.19;;;2.45;100.00
71457;BME280;59263;48.160;11.752;2023-02-12T02:09:12;97742.88;;;2.34;100.00
71457;BME280;59263;48.160;11.752;2023-02-12T02:11:38;97741.09;;;2.36;100.00
71457;BME280;59263;48.160;11.752;2023-02-12T02:14:22;97746.22;;;2.36;100.00
71457;BME280;59263;48.160;11.752;2023-02-12T02:31:20;97715.66;;;2.33;100.00
71457;BME280;59263;48.160;11.752;2023-02-12T02:33:58;97723.22;;;2.36;100.00
71457;BME280;59263;48.160;11.752;2023-02-12T02:41:38;97730.00;;;2.37;100.00
71457;BME280;59263;48.160;11.752;2023-02-12T02:44:21;97732.47;;;2.40;100.00
71457;BME280;59263;48.160;11.752;2023-02-12T02:46:50;97705.72;;;2.24;100.00
71457;BME280;59263;48.160;11.752;2023-02-12T02:49:22;97708.97;;;2.29;100.00
71457;BME280;59263;48.160;11.752;2023-02-12T02:51:53;97725.00;;;2.34;100.00
71457;BME280;59263;48.160;11.752;2023-02-12T02:54:32;97707.28;;;2.28;100.00
71457;BME280;59263;48.160;11.752;2023-02-12T02:57:04;97725.78;;;2.36;100.00
71457;BME280;59263;48.160;11.752;2023-02-12T02:59:37;97738.41;;;2.40;100.00
71457;BME280;59263;48.160;11.752;2023-02-12T03:02:12;97729.13;;;2.38;100.00
71457;BME280;59263;48.160;11.752;2023-02-12T03:04:50;97739.25;;;2.41;100.00
71457;BME280;59263;48.160;11.752;2023-02-12T03:07:54;97746.03;;;2.42;100.00
71457;BME280;59263;48.160;11.752;2023-02-12T03:10:16;97756.06;;;2.48;100.00
71457;BME280;59263;48.160;11.752;2023-02-12T03:12:55;97746.72;;;2.47;100.00
71457;BME280;59263;48.160;11.752;2023-02-12T03:15:33;97729.03;;;2.41;100.00
71457;BME280;59263;48.160;11.752;2023-02-12T03:18:00;97744.31;;;2.42;100.00
71457;BME280;59263;48.160;11.752;2023-02-12T03:20:30;97748.69;;;2.39;100.00
71457;BME280;59263;48.160;11.752;2023-02-12T03:23:03;97744.34;;;2.41;100.00
71457;BME280;59263;48.160;11.752;2023-02-12T03:25:37;97751.16;;;2.42;100.00
71457;BME280;59263;48.160;11.752;2023-02-12T03:28:08;97737.78;;;2.34;100.00
71457;BME280;59263;48.160;11.752;2023-02-12T03:36:02;97752.97;;;2.37;100.00
71457;BME280;59263;48.160;11.752;2023-02-12T03:38:42;97748.91;;;2.31;100.00
71457;BME280;59263;48.160;11.752;2023-02-12T03:41:13;97757.25;;;2.36;100.00
71457;BME280;59263;48.160;11.752;2023-02-12T03:43:48;97751.31;;;2.36;100.00
71457;BME280;59263;48.160;11.752;2023-02-12T03:46:21;97750.50;;;2.35;100.00
71457;BME280;59263;48.160;11.752;2023-02-12T03:49:10;97749.03;;;2.27;100.00
71457;BME280;59263;48.160;11.752;2023-02-12T03:51:41;97747.28;;;2.29;100.00
71457;BME280;59263;48.160;11.752;2023-02-12T03:54:10;97759.88;;;2.35;100.00
71457;BME280;59263;48.160;11.752;2023-02-12T03:56:41;97758.22;;;2.34;100.00
71457;BME280;59263;48.160;11.752;2023-02-12T03:59:08;97763.31;;;2.34;100.00
71457;BME280;59263;48.160;11.752;2023-02-12T04:01:34;97743.28;;;2.18;100.00
71457;BME280;59263;48.160;11.752;2023-02-12T04:04:06;97748.31;;;2.22;100.00
71457;BME280;59263;48.160;11.752;2023-02-12T04:06:32;97747.53;;;2.20;100.00
71457;BME280;59263;48.160;11.752;2023-02-12T04:09:02;97751.84;;;2.17;100.00
71457;BME280;59263;48.160;11.752;2023-02-12T04:14:11;97767.00;;;2.24;100.00
71457;BME280;59263;48.160;11.752;2023-02-12T04:16:49;97772.94;;;2.24;100.00
71457;BME280;59263;48.160;11.752;2023-02-12T04:19:20;97768.84;;;2.18;100.00
71457;BME280;59263;48.160;11.752;2023-02-12T04:22:10;97755.44;;;2.10;100.00
71457;BME280;59263;48.160;11.752;2023-02-12T04:27:41;97762.41;;;2.05;100.00
71457;BME280;59263;48.160;11.752;2023-02-12T04:30:22;97771.59;;;2.11;100.00
71457;BME280;59263;48.160;11.752;2023-02-12T04:32:56;97751.66;;;1.94;100.00
71457;BME280;59263;48.160;11.752;2023-02-12T04:35:36;97790.22;;;2.16;100.00
71457;BME280;59263;48.160;11.752;2023-02-12T04:38:07;97789.38;;;2.15;100.00
71457;BME280;59263;48.160;11.752;2023-02-12T04:40:34;97765.94;;;2.01;100.00
71457;BME280;59263;48.160;11.752;2023-02-12T04:43:00;97775.97;;;2.07;100.00
71457;BME280;59263;48.160;11.752;2023-02-12T04:45:29;97792.78;;;2.14;100.00
71457;BME280;59263;48.160;11.752;2023-02-12T04:47:55;97784.44;;;2.09;100.00
71457;BME280;59263;48.160;11.752;2023-02-12T04:50:21;97789.47;;;2.12;100.00
71457;BME280;59263;48.160;11.752;2023-02-12T04:52:46;97767.06;;;1.91;100.00
71457;BME280;59263;48.160;11.752;2023-02-12T04:55:12;97761.41;;;1.80;100.00
71457;BME280;59263;48.160;11.752;2023-02-12T04:57:38;97796.50;;;2.04;100.00
71457;BME280;59263;48.160;11.752;2023-02-12T05:00:05;97798.16;;;2.05;100.00
71457;BME280;59263;48.160;11.752;2023-02-12T05:02:32;97796.50;;;2.04;100.00
71457;BME280;59263;48.160;11.752;2023-02-12T05:04:58;97803.19;;;2.08;100.00
71457;BME280;59263;48.160;11.752;2023-02-12T05:07:23;97801.50;;;2.07;100.00
71457;BME280;59263;48.160;11.752;2023-02-12T05:09:49;97768.84;;;1.87;100.00
71457;BME280;59263;48.160;11.752;2023-02-12T05:12:14;97797.25;;;2.08;100.00
71457;BME280;59263;48.160;11.752;2023-02-12T05:14:39;97799.00;;;2.06;100.00
71457;BME280;59263;48.160;11.752;2023-02-12T05:17:05;97808.28;;;2.08;100.00
71457;BME280;59263;48.160;11.752;2023-02-12T05:19:30;97809.97;;;2.09;100.00
71457;BME280;59263;48.160;11.752;2023-02-12T05:21:55;97808.22;;;2.11;100.00
71457;BME280;59263;48.160;11.752;2023-02-12T05:24:21;97779.75;;;1.94;100.00
71457;BME280;59263;48.160;11.752;2023-02-12T05:26:48;97808.28;;;2.08;100.00
71457;BME280;59263;48.160;11.752;2023-02-12T05:29:13;97820.09;;;2.12;100.00
71457;BME280;59263;48.160;11.752;2023-02-12T05:31:38;97820.09;;;2.12;100.00
71457;BME280;59263;48.160;11.752;2023-02-12T05:34:05;97796.56;;;2.01;100.00
71457;BME280;59263;48.160;11.752;2023-02-12T05:36:31;97818.50;;;2.08;100.00
71457;BME280;59263;48.160;11.752;2023-02-12T05:38:57;97818.66;;;2.02;100.00
71457;BME280;59263;48.160;11.752;2023-02-12T05:41:23;97830.59;;;2.02;100.00
71457;BME280;59263;48.160;11.752;2023-02-12T05:43:49;97835.66;;;2.03;100.00
71457;BME280;59263;48.160;11.752;2023-02-12T05:46:16;97820.44;;;1.99;100.00
71457;BME280;59263;48.160;11.752;2023-02-12T05:48:41;97822.19;;;1.98;100.00
71457;BME280;59263;48.160;11.752;2023-02-12T05:51:13;97820.50;;;1.97;100.00
71457;BME280;59263;48.160;11.752;2023-02-12T05:53:39;97821.34;;;1.98;100.00
71457;BME280;59263;48.160;11.752;2023-02-12T05:56:19;97820.41;;;2.00;100.00
71457;BME280;59263;48.160;11.752;2023-02-12T05:58:47;97797.06;;;1.83;100.00
71457;BME280;59263;48.160;11.752;2023-02-12T06:01:14;97820.38;;;2.02;100.00
71457;BME280;59263;48.160;11.752;2023-02-12T06:03:41;97823.75;;;2.02;100.00
71457;BME280;59263;48.160;11.752;2023-02-12T06:06:07;97817.97;;;1.96;100.00
71457;BME280;59263;48.160;11.752;2023-02-12T06:08:32;97818.81;;;1.96;100.00
71457;BME280;59263;48.160;11.752;2023-02-12T06:11:01;97826.25;;;2.04;100.00
71457;BME280;59263;48.160;11.752;2023-02-12T06:13:27;97833.94;;;2.04;100.00
71457;BME280;59263;48.160;11.752;2023-02-12T06:15:53;97833.97;;;2.02;100.00
71457;BME280;59263;48.160;11.752;2023-02-12T06:18:18;97822.19;;;1.98;100.00
71457;BME280;59263;48.160;11.752;2023-02-12T06:20:43;97830.53;;;2.03;100.00
71457;BME280;59263;48.160;11.752;2023-02-12T06:23:09;97831.28;;;2.07;100.00
71457;BME280;59263;48.160;11.752;2023-02-12T06:25:35;97836.41;;;2.07;100.00
71457;BME280;59263;48.160;11.752;2023-02-12T06:28:00;97842.25;;;2.10;100.00
71457;BME280;59263;48.160;11.752;2023-02-12T06:30:26;97842.25;;;2.10;100.00
71457;BME280;59263;48.160;11.752;2023-02-12T06:32:51;97853.31;;;2.11;100.00
71457;BME280;59263;48.160;11.752;2023-02-12T06:35:16;97803.91;;;1.81;100.00
71457;BME280;59263;48.160;11.752;2023-02-12T06:37:41;97840.66;;;2.06;100.00
71457;BME280;59263;48.160;11.752;2023-02-12T06:40:07;97852.47;;;2.10;100.00
71457;BME280;59263;48.160;11.752;2023-02-12T06:42:33;97841.75;;;1.98;100.00
71457;BME280;59263;48.160;11.752;2023-02-12T06:44:58;97841.84;;;1.94;100.00
71457;BME280;59263;48.160;11.752;2023-02-12T06:47:23;97853.59;;;2.00;100.00
71457;BME280;59263;48.160;11.752;2023-02-12T06:49:49;97849.56;;;1.93;100.00
71457;BME280;59263;48.160;11.752;2023-02-12T06:52:14;97824.25;;;1.84;100.00
71457;BME280;59263;48.160;11.752;2023-02-12T06:54:39;97856.25;;;1.97;100.00
71457;BME280;59263;48.160;11.752;2023-02-12T06:57:05;97857.91;;;1.98;100.00
71457;BME280;59263;48.160;11.752;2023-02-12T06:59:30;97862.25;;;1.94;100.00
71457;BME280;59263;48.160;11.752;2023-02-12T07:01:55;97849.66;;;1.88;100.00
71457;BME280;59263;48.160;11.752;2023-02-12T07:04:21;97849.63;;;1.90;100.00
71457;BME280;59263;48.160;11.752;2023-02-12T07:06:46;97863.09;;;1.95;100.00
71457;BME280;59263;48.160;11.752;2023-02-12T07:09:11;97868.13;;;1.98;100.00
71457;BME280;59263;48.160;11.752;2023-02-12T07:11:37;97857.22;;;1.91;100.00
71457;BME280;59263;48.160;11.752;2023-02-12T07:14:02;97856.47;;;1.88;100.00
71457;BME280;59263;48.160;11.752;2023-02-12T07:16:28;97862.25;;;1.94;100.00
71457;BME280;59263;48.160;11.752;2023-02-12T07:18:53;97868.06;;;2.01;100.00
71457;BME280;59263;48.160;11.752;2023-02-12T07:21:19;97845.84;;;2.03;100.00
71457;BME280;59263;48.160;11.752;2023-02-12T07:23:45;97855.91;;;2.09;100.00
71457;BME280;59263;48.160;11.752;2023-02-12T07:26:13;97859.19;;;2.14;100.00
71457;BME280;59263;48.160;11.752;2023-02-12T07:28:39;97848.97;;;2.14;100.00
71457;BME280;59263;48.160;11.752;2023-02-12T07:31:13;97868.19;;;2.28;100.00
71457;BME280;59263;48.160;11.752;2023-02-12T07:33:39;97857.94;;;2.29;100.00
71457;BME280;59263;48.160;11.752;2023-02-12T07:36:09;97846.13;;;2.25;100.00
71457;BME280;59263;48.160;11.752;2023-02-12T07:38:36;97855.97;;;2.39;100.00
71457;BME280;59263;48.160;11.752;2023-02-12T07:41:15;97851.69;;;2.39;100.00
71457;BME280;59263;48.160;11.752;2023-02-12T07:43:42;97826.63;;;2.23;100.00
71457;BME280;59263;48.160;11.752;2023-02-12T07:46:12;97860.66;;;2.54;100.00
71457;BME280;59263;48.160;11.752;2023-02-12T07:48:38;97844.25;;;2.61;100.00
71457;BME280;59263;48.160;11.752;2023-02-12T07:51:07;97831.75;;;2.52;100.00
71457;BME280;59263;48.160;11.752;2023-02-12T07:53:33;97850.03;;;2.68;100.00
71457;BME280;59263;48.160;11.752;2023-02-12T07:56:11;97853.34;;;2.72;100.00
71457;BME280;59263;48.160;11.752;2023-02-12T07:58:37;97840.47;;;2.75;100.00
71457;BME280;59263;48.160;11.752;2023-02-12T08:01:19;97840.13;;;2.87;100.00
71457;BME280;59263;48.160;11.752;2023-02-12T08:03:46;97840.94;;;2.87;100.00
71457;BME280;59263;48.160;11.752;2023-02-12T08:06:17;97851.53;;;3.03;100.00
71457;BME280;59263;48.160;11.752;2023-02-12T08:08:44;97813.13;;;2.77;100.00
71457;BME280;59263;48.160;11.752;2023-02-12T08:11:10;97833.34;;;2.86;100.00
71457;BME280;59263;48.160;11.752;2023-02-12T08:13:37;97844.84;;;2.99;100.00
71457;BME280;59263;48.160;11.752;2023-02-12T08:16:07;97851.53;;;3.03;100.00
71457;BME280;59263;48.160;11.752;2023-02-12T08:18:33;97845.13;;;3.18;100.00
71457;BME280;59263;48.160;11.752;2023-02-12T08:21:03;97854.25;;;3.27;100.00
71457;BME280;59263;48.160;11.752;2023-02-12T08:23:29;97842.44;;;3.23;100.00
71457;BME280;59263;48.160;11.752;2023-02-12T08:25:54;97847.25;;;3.32;100.00
71457;BME280;59263;48.160;11.752;2023-02-12T08:28:19;97841.75;;;3.44;100.00
71457;BME280;59263;48.160;11.752;2023-02-12T08:30:44;97847.09;;;3.63;100.00
71457;BME280;59263;48.160;11.752;2023-02-12T08:33:10;97836.56;;;3.72;100.00
71457;BME280;59263;48.160;11.752;2023-02-12T08:35:35;97842.00;;;3.88;100.00
71457;BME280;59263;48.160;11.752;2023-02-12T08:38:00;97806.69;;;3.73;100.00
71457;BME280;59263;48.160;11.752;2023-02-12T08:40:26;97838.94;;;4.03;100.00
71457;BME280;59263;48.160;11.752;2023-02-12T08:42:51;97829.16;;;4.15;100.00
71457;BME280;59263;48.160;11.752;2023-02-12T08:45:17;97848.59;;;4.20;100.00
71457;BME280;59263;48.160;11.752;2023-02-12T08:47:42;97846.22;;;4.16;100.00
71457;BME280;59263;48.160;11.752;2023-02-12T08:50:08;97832.94;;;4.04;100.00
71457;BME280;59263;48.160;11.752;2023-02-12T08:52:34;97836.72;;;4.18;100.00
71457;BME280;59263;48.160;11.752;2023-02-12T08:54:59;97821.81;;;4.04;100.00
71457;BME280;59263;48.160;11.752;2023-02-12T08:57:25;97805.88;;;3.97;100.00
71457;BME280;59263;48.160;11.752;2023-02-12T08:59:50;97833.13;;;4.23;100.00
71457;BME280;59263;48.160;11.752;2023-02-12T09:02:15;97836.53;;;4.47;100.00
71457;BME280;59263;48.160;11.752;2023-02-12T09:04:41;97806.72;;;4.45;100.00
71457;BME280;59263;48.160;11.752;2023-02-12T09:07:06;97832.38;;;4.67;100.00
71457;BME280;59263;48.160;11.752;2023-02-12T09:09:31;97825.38;;;4.72;100.00
71457;BME280;59263;48.160;11.752;2023-02-12T09:11:57;97846.16;;;4.88;100.00
71457;BME280;59263;48.160;11.752;2023-02-12T09:14:22;97834.56;;;4.77;100.00
71457;BME280;59263;48.160;11.752;2023-02-12T09:16:48;97827.06;;;4.73;100.00
71457;BME280;59263;48.160;11.752;2023-02-12T09:19:14;97840.97;;;4.89;100.00
71457;BME280;59263;48.160;11.752;2023-02-12T09:21:40;97858.81;;;4.92;100.00
71457;BME280;59263;48.160;11.752;2023-02-12T09:24:06;97838.84;;;4.77;100.00
71457;BME280;59263;48.160;11.752;2023-02-12T09:26:31;97851.31;;;5.09;100.00
71457;BME280;59263;48.160;11.752;2023-02-12T09:28:57;97850.38;;;5.34;100.00
71457;BME280;59263;48.160;11.752;2023-02-12T09:31:26;97859.25;;;5.47;100.00
71457;BME280;59263;48.160;11.752;2023-02-12T09:33:53;97855.22;;;5.62;100.00
71457;BME280;59263;48.160;11.752;2023-02-12T09:36:20;97850.69;;;5.69;100.00
71457;BME280;59263;48.160;11.752;2023-02-12T09:38:46;97854.72;;;5.74;100.00
71457;BME280;59263;48.160;11.752;2023-02-12T09:44:01;97852.16;;;5.74;100.00
71457;BME280;59263;48.160;11.752;2023-02-12T09:46:31;97827.16;;;5.78;100.00
71457;BME280;59263;48.160;11.752;2023-02-12T09:49:07;97854.84;;;5.93;100.00
71457;BME280;59263;48.160;11.752;2023-02-12T09:51:35;97856.50;;;5.94;100.00
71457;BME280;59263;48.160;11.752;2023-02-12T09:54:04;97853.19;;;5.91;100.00
71457;BME280;59263;48.160;11.752;2023-02-12T09:56:33;97842.00;;;5.93;100.00
71457;BME280;59263;48.160;11.752;2023-02-12T09:59:00;97852.97;;;6.17;100.00
71457;BME280;59263;48.160;11.752;2023-02-12T10:01:27;97864.31;;;6.32;100.00
71457;BME280;59263;48.160;11.752;2023-02-12T10:03:54;97844.53;;;6.34;100.00
71457;BME280;59263;48.160;11.752;2023-02-12T10:06:30;97851.50;;;6.51;100.00
71457;BME280;59263;48.160;11.752;2023-02-12T10:09:02;97846.78;;;6.61;100.00
71457;BME280;59263;48.160;11.752;2023-02-12T10:11:52;97842.19;;;6.67;100.00
71457;BME280;59263;48.160;11.752;2023-02-12T10:25:01;97853.72;;;7.15;100.00
71457;BME280;59263;48.160;11.752;2023-02-12T10:27:37;97828.66;;;7.01;100.00
71457;BME280;59263;48.160;11.752;2023-02-12T10:30:13;97832.44;;;7.12;100.00
71457;BME280;59263;48.160;11.752;2023-02-12T10:32:42;97835.78;;;7.14;100.00
71457;BME280;59263;48.160;11.752;2023-02-12T10:35:13;97851.16;;;7.15;100.00
71457;BME280;59263;48.160;11.752;2023-02-12T10:37:48;97834.75;;;6.99;100.00
71457;BME280;59263;48.160;11.752;2023-02-12T10:40:20;97858.84;;;6.98;100.00
71457;BME280;59263;48.160;11.752;2023-02-12T10:42:49;97847.72;;;6.97;100.00
71457;BME280;59263;48.160;11.752;2023-02-12T10:45:23;97850.41;;;6.94;100.00
71457;BME280;59263;48.160;11.752;2023-02-12T10:47:52;97848.44;;;6.99;100.00
71457;BME280;59263;48.160;11.752;2023-02-12T10:50:27;97842.06;;;6.89;100.00
71457;BME280;59263;48.160;11.752;2023-02-12T10:52:57;97832.59;;;7.09;100.00
71457;BME280;59263;48.160;11.752;2023-02-12T10:55:34;97843.69;;;7.28;100.00
71457;BME280;59263;48.160;11.752;2023-02-12T10:58:01;97836.16;;;7.42;100.00
71457;BME280;59263;48.160;11.752;2023-02-12T11:00:34;97842.38;;;7.56;100.00
71457;BME280;59263;48.160;11.752;2023-02-12T11:05:43;97828.50;;;7.93;100.00
71457;BME280;59263;48.160;11.752;2023-02-12T11:08:34;97807.88;;;8.10;100.00
71457;BME280;59263;48.160;11.752;2023-02-12T11:11:09;97802.91;;;8.23;100.00
71457;BME280;59263;48.160;11.752;2023-02-12T11:13:36;97797.75;;;8.23;100.00
71457;BME280;59263;48.160;11.752;2023-02-12T11:16:03;97818.59;;;8.36;100.00
71457;BME280;59263;48.160;11.752;2023-02-12T11:18:30;97809.91;;;8.21;100.00
71457;BME280;59263;48.160;11.752;2023-02-12T11:21:08;97812.47;;;8.21;100.00
71457;BME280;59263;48.160;11.752;2023-02-12T11:23:39;97816.25;;;8.31;100.00
71457;BME280;59263;48.160;11.752;2023-02-12T11:26:26;97783.41;;;8.02;100.00
71457;BME280;59263;48.160;11.752;2023-02-12T11:29:01;97800.44;;;8.04;100.00
71457;BME280;59263;48.160;11.752;2023-02-12T11:36:51;97812.84;;;7.97;100.00
71457;BME280;59263;48.160;11.752;2023-02-12T11:41:55;97806.88;;;8.13;100.00
71457;BME280;59263;48.160;11.752;2023-02-12T11:44:35;97808.69;;;8.11;100.00
71457;BME280;59263;48.160;11.752;2023-02-12T11:47:03;97810.53;;;8.09;100.00
71457;BME280;59263;48.160;11.752;2023-02-12T11:49:39;97799.59;;;8.21;100.00
71457;BME280;59263;48.160;11.752;2023-02-12T11:52:05;97800.94;;;8.28;100.00
71457;BME280;59263;48.160;11.752;2023-02-12T11:54:41;97806.25;;;8.25;100.00
71457;BME280;59263;48.160;11.752;2023-02-12T11:57:33;97778.09;;;8.05;100.00
71457;BME280;59263;48.160;11.752;2023-02-12T11:59:55;97798.03;;;8.01;100.00
71457;BME280;59263;48.160;11.752;2023-02-12T12:02:24;97789.50;;;7.83;100.00
71457;BME280;59263;48.160;11.752;2023-02-12T12:04:52;97795.91;;;7.74;100.00
71457;BME280;59263;48.160;11.752;2023-02-12T12:07:26;97794.19;;;7.75;100.00
71457;BME280;59263;48.160;11.752;2023-02-12T12:09:58;97780.34;;;8.11;100.00
71457;BME280;59263;48.160;11.752;2023-02-12T12:12:48;97778.84;;;8.40;100.00
71457;BME280;59263;48.160;11.752;2023-02-12T12:18:12;97763.47;;;8.70;100.00
71457;BME280;59263;48.160;11.752;2023-02-12T12:21:08;97766.72;;;8.73;100.00
71457;BME280;59263;48.160;11.752;2023-02-12T12:23:43;97765.25;;;8.36;100.00
71457;BME280;59263;48.160;11.752;2023-02-12T12:26:16;97767.94;;;8.02;100.00
71457;BME280;59263;48.160;11.752;2023-02-12T12:28:54;97755.06;;;7.84;100.00
71457;BME280;59263;48.160;11.752;2023-02-12T12:31:32;97768.81;;;8.00;100.00
71457;BME280;59263;48.160;11.752;2023-02-12T12:34:06;97770.16;;;8.25;100.00
71457;BME280;59263;48.160;11.752;2023-02-12T12:39:41;97768.41;;;8.90;100.00
71457;BME280;59263;48.160;11.752;2023-02-12T12:45:11;97755.13;;;9.42;100.00
71457;BME280;59263;48.160;11.752;2023-02-12T12:47:49;97751.53;;;9.45;100.00
71457;BME280;59263;48.160;11.752;2023-02-12T13:04:03;97759.56;;;8.47;100.00
71457;BME280;59263;48.160;11.752;2023-02-12T13:14:39;97747.50;;;8.30;100.00
71457;BME280;59263;48.160;11.752;2023-02-12T13:17:23;97756.84;;;8.33;100.00
71457;BME280;59263;48.160;11.752;2023-02-12T13:20:20;97753.97;;;8.39;100.00
71457;BME280;59263;48.160;11.752;2023-02-12T13:23:56;97744.34;;;8.42;100.00
71457;BME280;59263;48.160;11.752;2023-02-12T13:26:32;97753.47;;;8.48;100.00
71457;BME280;59263;48.160;11.752;2023-02-12T13:29:00;97740.66;;;8.46;100.00
71457;BME280;59263;48.160;11.752;2023-02-12T13:31:29;97755.22;;;8.47;100.00
71457;BME280;59263;48.160;11.752;2023-02-12T13:33:59;97740.66;;;7.97;100.00
71457;BME280;59263;48.160;11.752;2023-02-12T13:36:25;97740.84;;;8.26;100.00
71457;BME280;59263;48.160;11.752;2023-02-12T13:39:15;97748.97;;;8.03;100.00
71457;BME280;59263;48.160;11.752;2023-02-12T13:41:51;97756.13;;;7.97;100.00
71457;BME280;59263;48.160;11.752;2023-02-12T13:44:35;97757.63;;;8.02;100.00
71457;BME280;59263;48.160;11.752;2023-02-12T13:47:18;97748.72;;;7.74;100.00
71457;BME280;59263;48.160;11.752;2023-02-12T13:49:51;97757.97;;;7.61;100.00
71457;BME280;59263;48.160;11.752;2023-02-12T13:52:43;97756.75;;;7.50;100.00
71457;BME280;59263;48.160;11.752;2023-02-12T13:57:45;97754.19;;;7.50;100.00
71457;BME280;59263;48.160;11.752;2023-02-12T14:03:12;97752.06;;;7.59;100.00
71457;BME280;59263;48.160;11.752;2023-02-12T14:05:38;97741.38;;;7.49;100.00
71457;BME280;59263;48.160;11.752;2023-02-12T14:08:04;97745.84;;;7.63;100.00
71457;BME280;59263;48.160;11.752;2023-02-12T14:10:37;97749.34;;;7.62;100.00
71457;BME280;59263;48.160;11.752;2023-02-12T14:13:20;97745.69;;;7.66;100.00
71457;BME280;59263;48.160;11.752;2023-02-12T14:15:50;97700.41;;;7.44;100.00
71457;BME280;59263;48.160;11.752;2023-02-12T14:18:26;97745.44;;;7.88;100.00
71457;BME280;59263;48.160;11.752;2023-02-12T14:23:36;97742.19;;;8.33;100.00
71457;BME280;59263;48.160;11.752;2023-02-12T14:26:08;97731.69;;;8.69;100.00
71457;BME280;59263;48.160;11.752;2023-02-12T14:28:54;97728.06;;;9.04;100.00
71457;BME280;59263;48.160;11.752;2023-02-12T14:31:37;97717.19;;;9.87;100.00
71457;BME280;59263;48.160;11.752;2023-02-12T14:41:33;97697.66;;;12.24;100.00
71457;BME280;59263;48.160;11.752;2023-02-12T14:47:00;97711.47;;;11.99;100.00
71457;BME280;59263;48.160;11.752;2023-02-12T14:49:38;97707.94;;;12.00;100.00
71457;BME280;59263;48.160;11.752;2023-02-12T14:55:02;97703.69;;;10.81;100.00